Time;durP1;ratioP1;P1;durP2;ratioP2;P2;SDS_P1;SDS_P2;PMS_P1;PMS_P2;Temp;Humidity;BMP_temperature;BMP_pressure;BME280_temperature;BME280_humidity;BME280_pressure;Samples;Min_cycle;Max_cycle;Signal;HPM_P1;HPM_P2
2022/08/26 00:00:55;;;;;;;4.50;4.03;;;;;;;;;;5044242;28;20036;-46
2022/08/26 00:03:22;;;;;;;7.40;4.22;;;;;;;;;;5047170;28;20029;-46
2022/08/26 00:05:49;;;;;;;7.53;4.18;;;;;;;;;;5041820;28;20021;-47
2022/08/26 00:08:16;;;;;;;7.93;3.67;;;;;;;;;;5047469;28;20029;-51
2022/08/26 00:10:42;;;;;;;5.82;4.18;;;;;;;;;;5046716;28;20039;-47
2022/08/26 00:13:09;;;;;;;5.80;4.20;;;;;;;;;;5045324;28;20082;-51
2022/08/26 00:15:36;;;;;;;7.55;4.00;;;;;;;;;;5045073;28;20045;-47
2022/08/26 00:18:02;;;;;;;4.40;4.00;;;;;;;;;;5047113;28;20021;-50
2022/08/26 00:20:30;;;;;;;7.63;4.07;;;;;;;;;;5049076;28;20447;-48
2022/08/26 00:22:56;;;;;;;7.47;4.30;;;;;;;;;;5047472;28;20465;-46
2022/08/26 00:25:22;;;;;;;5.22;3.85;;;;;;;;;;5047250;28;20558;-46
2022/08/26 00:27:48;;;;;;;6.88;4.70;;;;;;;;;;5045383;28;20109;-49
2022/08/26 00:30:19;;;;;;;4.03;3.63;;;;;;;;;;5048029;28;20109;-47
2022/08/26 00:32:44;;;;;;;5.18;4.05;;;;;;;;;;5044538;28;20017;-46
2022/08/26 00:35:11;;;;;;;7.70;4.38;;;;;;;;;;5048961;28;20031;-48
2022/08/26 00:37:39;;;;;;;8.20;3.75;;;;;;;;;;5045564;28;20044;-46
2022/08/26 00:40:08;;;;;;;5.78;3.78;;;;;;;;;;5047285;28;20021;-48
2022/08/26 00:42:34;;;;;;;7.68;4.80;;;;;;;;;;5043221;28;20087;-47
2022/08/26 00:45:00;;;;;;;11.15;4.72;;;;;;;;;;5046917;28;20425;-46
2022/08/26 00:47:32;;;;;;;7.57;4.75;;;;;;;;;;5046871;28;20028;-50
2022/08/26 00:49:59;;;;;;;10.40;4.72;;;;;;;;;;5046567;28;20032;-46
2022/08/26 00:52:25;;;;;;;4.72;4.32;;;;;;;;;;5045921;28;20025;-50
2022/08/26 00:55:16;;;;;;;4.60;4.15;;;;;;;;;;5046453;28;20071;-50
2022/08/26 00:57:43;;;;;;;5.82;4.15;;;;;;;;;;5048166;28;20044;-48
2022/08/26 01:00:16;;;;;;;10.13;4.75;;;;;;;;;;5046544;28;20048;-47
2022/08/26 01:02:43;;;;;;;7.85;4.47;;;;;;;;;;5042980;28;20481;-46
2022/08/26 01:05:10;;;;;;;6.38;4.90;;;;;;;;;;5040255;28;20035;-48
2022/08/26 01:07:36;;;;;;;8.13;4.70;;;;;;;;;;5045769;28;20535;-48
2022/08/26 01:10:07;;;;;;;9.07;4.68;;;;;;;;;;5046278;28;20054;-46
2022/08/26 01:12:37;;;;;;;6.95;4.90;;;;;;;;;;5046386;28;20116;-48
2022/08/26 01:15:04;;;;;;;6.32;4.40;;;;;;;;;;5042941;28;20473;-48
2022/08/26 01:17:30;;;;;;;4.47;4.07;;;;;;;;;;5044519;28;20071;-46
2022/08/26 01:20:05;;;;;;;6.53;4.40;;;;;;;;;;5047304;28;20036;-47
2022/08/26 01:22:45;;;;;;;7.53;4.40;;;;;;;;;;5043908;28;20566;-47
2022/08/26 01:25:11;;;;;;;7.07;4.75;;;;;;;;;;5041058;28;20021;-48
2022/08/26 01:27:37;;;;;;;5.85;5.18;;;;;;;;;;5051007;28;20086;-46
2022/08/26 01:30:04;;;;;;;12.07;5.60;;;;;;;;;;5047252;28;20086;-47
2022/08/26 01:32:31;;;;;;;8.40;5.43;;;;;;;;;;5045556;28;20385;-47
2022/08/26 01:34:58;;;;;;;10.05;5.30;;;;;;;;;;5045300;28;20021;-47
2022/08/26 01:37:28;;;;;;;9.52;4.80;;;;;;;;;;5042762;28;20032;-46
2022/08/26 01:39:56;;;;;;;9.00;5.43;;;;;;;;;;5041120;28;20040;-46
2022/08/26 01:42:24;;;;;;;8.20;5.80;;;;;;;;;;5047839;28;20759;-49
2022/08/26 01:45:00;;;;;;;7.07;5.90;;;;;;;;;;5044816;28;20033;-47
2022/08/26 01:47:30;;;;;;;7.13;5.95;;;;;;;;;;5042053;28;20082;-49
2022/08/26 01:49:59;;;;;;;7.25;6.05;;;;;;;;;;5043096;28;20076;-50
2022/08/26 01:52:29;;;;;;;6.55;5.90;;;;;;;;;;5044010;28;20495;-47
2022/08/26 01:54:56;;;;;;;8.32;6.80;;;;;;;;;;5045242;28;21887;-47
2022/08/26 01:57:22;;;;;;;6.57;5.75;;;;;;;;;;5046767;28;20115;-48
2022/08/26 01:59:49;;;;;;;6.28;5.45;;;;;;;;;;5043596;28;20025;-49
2022/08/26 02:02:16;;;;;;;7.53;6.57;;;;;;;;;;5045522;28;20032;-48
2022/08/26 02:04:48;;;;;;;10.25;5.63;;;;;;;;;;5046201;28;20538;-49
2022/08/26 02:07:17;;;;;;;8.50;5.28;;;;;;;;;;5039684;28;20099;-47
2022/08/26 02:09:42;;;;;;;7.05;4.70;;;;;;;;;;5040396;28;20163;-47
2022/08/26 02:12:10;;;;;;;7.50;5.35;;;;;;;;;;5046082;28;20111;-47
2022/08/26 02:14:40;;;;;;;7.07;5.20;;;;;;;;;;5044228;28;20029;-47
2022/08/26 02:17:08;;;;;;;6.40;5.38;;;;;;;;;;5041307;28;20033;-47
2022/08/26 02:19:38;;;;;;;7.75;5.10;;;;;;;;;;5044295;28;20028;-47
2022/08/26 02:22:10;;;;;;;6.60;4.45;;;;;;;;;;5043852;28;20512;-49
2022/08/26 02:24:53;;;;;;;5.40;4.20;;;;;;;;;;5044862;28;22509;-47
2022/08/26 02:27:26;;;;;;;5.57;3.53;;;;;;;;;;5044330;28;20075;-48
2022/08/26 02:30:01;;;;;;;7.85;3.83;;;;;;;;;;5043446;28;20036;-46
2022/08/26 02:32:28;;;;;;;5.22;3.75;;;;;;;;;;5042028;28;20112;-50
2022/08/26 02:34:54;;;;;;;4.35;3.58;;;;;;;;;;5046007;28;20177;-47
2022/08/26 02:37:20;;;;;;;5.13;3.35;;;;;;;;;;5044768;28;20025;-47
2022/08/26 02:39:45;;;;;;;3.42;3.13;;;;;;;;;;5043177;28;20016;-48
2022/08/26 02:42:11;;;;;;;3.75;3.00;;;;;;;;;;5047987;28;20116;-46
2022/08/26 02:44:37;;;;;;;2.40;2.20;;;;;;;;;;5045265;28;20029;-53
2022/08/26 02:47:03;;;;;;;3.08;2.85;;;;;;;;;;5043023;28;20098;-46
2022/08/26 02:49:29;;;;;;;2.85;2.40;;;;;;;;;;5044286;28;20033;-46
2022/08/26 02:51:55;;;;;;;2.53;2.20;;;;;;;;;;5045362;28;20385;-51
2022/08/26 02:54:21;;;;;;;7.63;2.42;;;;;;;;;;5043071;28;20373;-50
2022/08/26 02:56:47;;;;;;;5.22;2.70;;;;;;;;;;5039724;28;20052;-46
2022/08/26 02:59:14;;;;;;;6.25;3.10;;;;;;;;;;5044493;28;20032;-46
2022/08/26 03:01:40;;;;;;;6.97;3.17;;;;;;;;;;5039328;28;20039;-47
2022/08/26 03:04:08;;;;;;;4.68;3.13;;;;;;;;;;5043367;28;20024;-45
2022/08/26 03:06:35;;;;;;;3.88;2.60;;;;;;;;;;5037782;28;20033;-46
2022/08/26 03:09:01;;;;;;;5.38;2.63;;;;;;;;;;5041936;28;20033;-48
2022/08/26 03:11:27;;;;;;;3.25;2.50;;;;;;;;;;5037612;28;20047;-46
2022/08/26 03:13:54;;;;;;;2.83;2.55;;;;;;;;;;5040685;28;20061;-49
2022/08/26 03:16:20;;;;;;;6.43;3.08;;;;;;;;;;5038621;28;20032;-46
2022/08/26 03:18:45;;;;;;;3.92;2.75;;;;;;;;;;5045128;28;20028;-47
2022/08/26 03:21:15;;;;;;;4.55;2.75;;;;;;;;;;5040320;28;20035;-48
2022/08/26 03:23:42;;;;;;;4.25;2.50;;;;;;;;;;5045219;28;20961;-46
2022/08/26 03:26:09;;;;;;;3.35;2.50;;;;;;;;;;5038789;28;20071;-48
2022/08/26 03:28:35;;;;;;;3.28;2.90;;;;;;;;;;5043548;28;20385;-47
2022/08/26 03:31:01;;;;;;;4.47;2.78;;;;;;;;;;5047836;28;20029;-46
2022/08/26 03:33:27;;;;;;;2.92;2.65;;;;;;;;;;5048972;28;20028;-47
2022/08/26 03:35:53;;;;;;;3.03;2.55;;;;;;;;;;5044660;28;20036;-47
2022/08/26 03:38:21;;;;;;;5.28;2.72;;;;;;;;;;5048089;28;20036;-49
2022/08/26 03:40:47;;;;;;;4.00;2.80;;;;;;;;;;5048052;28;20017;-46
2022/08/26 03:43:15;;;;;;;5.22;3.03;;;;;;;;;;5046043;28;20035;-48
2022/08/26 03:45:41;;;;;;;3.35;2.38;;;;;;;;;;5049824;28;20029;-46
2022/08/26 03:48:07;;;;;;;3.13;2.30;;;;;;;;;;5048974;28;20103;-50
2022/08/26 03:50:34;;;;;;;2.47;2.28;;;;;;;;;;5047711;28;20116;-48
2022/08/26 03:53:00;;;;;;;2.60;2.40;;;;;;;;;;5046601;28;20025;-47
2022/08/26 03:55:30;;;;;;;2.50;2.30;;;;;;;;;;5046969;28;20456;-46
2022/08/26 03:57:57;;;;;;;3.40;2.30;;;;;;;;;;5048047;28;20033;-48
2022/08/26 04:00:23;;;;;;;3.53;2.45;;;;;;;;;;5046223;28;20029;-48
2022/08/26 04:02:49;;;;;;;4.85;2.55;;;;;;;;;;5047799;28;20104;-47
2022/08/26 04:05:18;;;;;;;3.17;2.60;;;;;;;;;;5050263;28;20025;-47
2022/08/26 04:07:45;;;;;;;2.20;2.00;;;;;;;;;;5044074;28;20036;-46
2022/08/26 04:10:13;;;;;;;3.50;2.40;;;;;;;;;;5047138;28;20078;-46
2022/08/26 04:12:39;;;;;;;3.47;2.17;;;;;;;;;;5046791;28;20036;-45
2022/08/26 04:15:08;;;;;;;2.05;1.88;;;;;;;;;;5044767;28;20036;-46
2022/08/26 04:17:33;;;;;;;3.00;2.10;;;;;;;;;;5043608;28;20071;-49
2022/08/26 04:19:59;;;;;;;2.20;2.00;;;;;;;;;;5048869;28;20056;-48
2022/08/26 04:22:25;;;;;;;4.80;2.53;;;;;;;;;;5045551;28;20029;-47
2022/08/26 04:24:51;;;;;;;3.42;2.80;;;;;;;;;;5047437;28;20037;-46
2022/08/26 04:27:17;;;;;;;2.90;2.53;;;;;;;;;;5043215;28;20054;-51
2022/08/26 04:29:45;;;;;;;4.03;2.60;;;;;;;;;;5048528;28;20090;-46
2022/08/26 04:32:10;;;;;;;4.43;2.10;;;;;;;;;;5047633;28;20067;-51
2022/08/26 04:34:37;;;;;;;3.13;2.25;;;;;;;;;;5048922;28;20421;-46
2022/08/26 04:37:03;;;;;;;6.93;2.47;;;;;;;;;;5040244;28;20025;-47
2022/08/26 04:39:30;;;;;;;3.58;2.50;;;;;;;;;;5046642;28;20022;-47
2022/08/26 04:41:56;;;;;;;6.13;2.25;;;;;;;;;;5045611;28;20116;-47
2022/08/26 04:44:24;;;;;;;4.05;2.40;;;;;;;;;;5046836;28;20436;-48
2022/08/26 04:46:51;;;;;;;1.92;1.83;;;;;;;;;;5046666;28;20041;-48
2022/08/26 04:49:17;;;;;;;3.95;2.13;;;;;;;;;;5040284;28;20033;-49
2022/08/26 04:51:42;;;;;;;2.83;2.10;;;;;;;;;;5041713;28;21138;-48
2022/08/26 04:54:08;;;;;;;2.38;2.00;;;;;;;;;;5046733;28;21464;-46
2022/08/26 04:56:38;;;;;;;2.38;2.17;;;;;;;;;;5047666;28;20057;-47
2022/08/26 04:59:06;;;;;;;3.20;2.17;;;;;;;;;;5044867;28;20045;-48
2022/08/26 05:01:33;;;;;;;2.03;1.83;;;;;;;;;;5047236;28;20021;-47
2022/08/26 05:04:00;;;;;;;3.10;2.17;;;;;;;;;;5046797;28;20025;-46
2022/08/26 05:06:26;;;;;;;1.95;1.80;;;;;;;;;;5044490;28;20064;-50
2022/08/26 05:08:53;;;;;;;2.10;1.90;;;;;;;;;;5044912;28;20029;-50
2022/08/26 05:11:20;;;;;;;2.40;2.00;;;;;;;;;;5059005;28;20115;-46
2022/08/26 05:13:45;;;;;;;2.60;2.40;;;;;;;;;;5046877;28;20465;-47
2022/08/26 05:16:14;;;;;;;2.83;2.17;;;;;;;;;;5044757;28;20025;-47
2022/08/26 05:18:42;;;;;;;2.00;1.83;;;;;;;;;;5044071;28;20053;-47
2022/08/26 05:21:15;;;;;;;2.75;2.13;;;;;;;;;;5045868;28;20060;-47
2022/08/26 05:23:41;;;;;;;3.63;2.00;;;;;;;;;;5046724;28;20086;-50
2022/08/26 05:26:08;;;;;;;2.60;2.00;;;;;;;;;;5044971;28;20040;-48
2022/08/26 05:28:34;;;;;;;8.43;2.25;;;;;;;;;;5045176;28;20028;-47
2022/08/26 05:31:00;;;;;;;2.85;2.60;;;;;;;;;;5045530;28;20029;-48
2022/08/26 05:33:26;;;;;;;5.18;2.78;;;;;;;;;;5045849;28;20495;-46
2022/08/26 05:35:51;;;;;;;8.32;2.88;;;;;;;;;;5044994;28;20033;-48
2022/08/26 05:38:20;;;;;;;4.85;2.80;;;;;;;;;;5045284;28;20075;-47
2022/08/26 05:40:48;;;;;;;3.38;2.63;;;;;;;;;;5048131;28;20029;-47
2022/08/26 05:43:15;;;;;;;7.00;2.50;;;;;;;;;;5045197;28;20029;-48
2022/08/26 05:45:46;;;;;;;3.20;2.72;;;;;;;;;;5048050;28;20052;-47
2022/08/26 05:48:14;;;;;;;3.08;2.40;;;;;;;;;;5043920;28;20469;-46
2022/08/26 05:50:46;;;;;;;6.45;2.55;;;;;;;;;;5043234;28;20940;-47
2022/08/26 05:53:14;;;;;;;6.38;2.55;;;;;;;;;;5045363;28;20079;-47
2022/08/26 05:55:45;;;;;;;2.67;2.25;;;;;;;;;;5046833;28;20048;-48
2022/08/26 05:58:11;;;;;;;7.97;2.13;;;;;;;;;;5045087;28;20486;-48
2022/08/26 06:00:38;;;;;;;3.67;2.13;;;;;;;;;;5047114;28;20037;-46
2022/08/26 06:03:04;;;;;;;2.50;2.30;;;;;;;;;;5044814;28;20032;-51
2022/08/26 06:05:30;;;;;;;2.67;1.90;;;;;;;;;;5047238;28;20044;-46
2022/08/26 06:08:12;;;;;;;2.47;2.10;;;;;;;;;;5043372;28;20025;-48
2022/08/26 06:10:58;;;;;;;4.45;2.08;;;;;;;;;;5042377;28;20029;-49
2022/08/26 06:13:26;;;;;;;3.42;1.90;;;;;;;;;;5044923;28;20114;-46
2022/08/26 06:15:52;;;;;;;4.38;2.13;;;;;;;;;;5042961;28;20029;-51
2022/08/26 06:18:26;;;;;;;2.80;2.10;;;;;;;;;;5046271;28;20501;-46
2022/08/26 06:20:53;;;;;;;4.78;2.42;;;;;;;;;;5042691;28;20030;-46
2022/08/26 06:26:04;;;;;;;4.40;2.10;;;;;;;;;;5041987;28;20033;-47
2022/08/26 06:28:31;;;;;;;6.57;1.90;;;;;;;;;;5041942;28;20116;-47
2022/08/26 06:30:57;;;;;;;1.85;1.75;;;;;;;;;;5043098;28;20474;-47
2022/08/26 06:33:23;;;;;;;4.80;2.00;;;;;;;;;;5044827;28;20069;-48
2022/08/26 06:35:50;;;;;;;4.40;1.88;;;;;;;;;;5042710;28;20049;-45
2022/08/26 06:38:16;;;;;;;2.08;1.80;;;;;;;;;;5047328;28;20738;-47
2022/08/26 06:40:47;;;;;;;2.63;2.08;;;;;;;;;;5044827;28;20064;-46
2022/08/26 06:43:21;;;;;;;5.85;2.20;;;;;;;;;;5045154;28;20060;-49
2022/08/26 06:45:47;;;;;;;8.80;2.00;;;;;;;;;;5042480;28;20049;-49
2022/08/26 06:48:17;;;;;;;2.33;1.88;;;;;;;;;;5045407;28;20457;-47
2022/08/26 06:50:43;;;;;;;4.28;2.13;;;;;;;;;;5044368;28;20020;-49
2022/08/26 06:53:10;;;;;;;2.85;1.90;;;;;;;;;;5046089;28;20256;-48
2022/08/26 06:55:40;;;;;;;3.83;1.73;;;;;;;;;;5043757;28;20489;-49
2022/08/26 06:58:08;;;;;;;5.78;2.35;;;;;;;;;;5045299;28;20397;-46
2022/08/26 07:00:35;;;;;;;4.55;2.45;;;;;;;;;;5041477;28;20033;-47
2022/08/26 07:03:01;;;;;;;6.18;2.60;;;;;;;;;;5047568;28;20103;-49
2022/08/26 07:05:27;;;;;;;2.05;1.80;;;;;;;;;;5049832;28;20040;-49
2022/08/26 07:07:53;;;;;;;3.33;1.90;;;;;;;;;;5050491;28;20127;-48
2022/08/26 07:10:19;;;;;;;1.80;1.70;;;;;;;;;;5046978;28;20025;-51
2022/08/26 07:12:44;;;;;;;6.90;2.05;;;;;;;;;;5049123;28;20017;-46
2022/08/26 07:15:10;;;;;;;2.47;2.00;;;;;;;;;;5048752;28;20056;-47
2022/08/26 07:17:36;;;;;;;10.85;2.20;;;;;;;;;;5051040;28;20134;-49
2022/08/26 07:20:06;;;;;;;6.43;1.83;;;;;;;;;;5045471;28;20017;-47
2022/08/26 07:22:32;;;;;;;5.65;2.08;;;;;;;;;;5047643;28;20029;-49
2022/08/26 07:24:58;;;;;;;8.90;2.17;;;;;;;;;;5047500;28;20086;-46
2022/08/26 07:27:23;;;;;;;3.53;2.00;;;;;;;;;;5047049;28;20416;-47
2022/08/26 07:29:49;;;;;;;4.38;1.70;;;;;;;;;;5046489;28;20035;-47
2022/08/26 07:32:18;;;;;;;14.63;2.05;;;;;;;;;;5048060;28;20024;-47
2022/08/26 07:34:44;;;;;;;2.22;2.00;;;;;;;;;;5048952;28;20036;-48
2022/08/26 07:37:10;;;;;;;6.00;1.88;;;;;;;;;;5044356;28;20028;-48
2022/08/26 07:39:36;;;;;;;5.03;2.50;;;;;;;;;;5047380;28;20025;-48
2022/08/26 07:42:03;;;;;;;5.28;2.28;;;;;;;;;;5046021;28;20025;-47
2022/08/26 07:44:29;;;;;;;9.50;2.15;;;;;;;;;;5046346;28;20351;-46
2022/08/26 07:46:55;;;;;;;5.60;1.73;;;;;;;;;;5046726;28;20029;-48
2022/08/26 07:49:22;;;;;;;2.00;1.83;;;;;;;;;;5041612;28;20029;-47
2022/08/26 07:51:49;;;;;;;1.90;1.80;;;;;;;;;;5050164;28;20028;-49
2022/08/26 07:54:15;;;;;;;4.68;2.20;;;;;;;;;;5049262;28;20025;-48
2022/08/26 07:56:41;;;;;;;3.75;2.15;;;;;;;;;;5046265;28;20603;-48
2022/08/26 07:59:07;;;;;;;8.70;2.25;;;;;;;;;;5048404;28;20033;-47
2022/08/26 08:01:33;;;;;;;5.47;2.10;;;;;;;;;;5045530;28;20035;-47
2022/08/26 08:03:59;;;;;;;5.38;2.30;;;;;;;;;;5045919;28;20036;-47
2022/08/26 08:06:25;;;;;;;7.30;2.10;;;;;;;;;;5047938;28;20029;-50
2022/08/26 08:08:51;;;;;;;3.92;1.95;;;;;;;;;;5042334;28;20036;-48
2022/08/26 08:11:19;;;;;;;2.33;2.08;;;;;;;;;;5043685;28;20052;-47
2022/08/26 08:13:46;;;;;;;7.13;2.10;;;;;;;;;;5048645;28;20036;-48
2022/08/26 08:16:12;;;;;;;4.18;2.08;;;;;;;;;;5048545;28;20497;-49
2022/08/26 08:18:38;;;;;;;3.58;1.90;;;;;;;;;;5046022;28;20041;-51
2022/08/26 08:21:04;;;;;;;6.07;2.00;;;;;;;;;;5045708;28;20488;-47
2022/08/26 08:23:30;;;;;;;1.98;1.88;;;;;;;;;;5041781;28;20040;-47
2022/08/26 08:26:04;;;;;;;5.97;2.25;;;;;;;;;;5044350;28;22741;-47
2022/08/26 08:28:30;;;;;;;10.30;2.03;;;;;;;;;;5045884;28;20025;-46
2022/08/26 08:30:56;;;;;;;3.22;1.85;;;;;;;;;;5042130;28;20814;-50
2022/08/26 08:33:22;;;;;;;2.03;1.80;;;;;;;;;;5043461;28;20718;-47
2022/08/26 08:35:48;;;;;;;2.70;2.05;;;;;;;;;;5045576;28;20043;-47
2022/08/26 08:38:14;;;;;;;4.97;1.90;;;;;;;;;;5048038;28;20413;-48
2022/08/26 08:40:43;;;;;;;4.22;1.80;;;;;;;;;;5044274;28;20588;-46
2022/08/26 08:43:12;;;;;;;5.75;1.77;;;;;;;;;;5044996;28;20025;-46
2022/08/26 08:45:40;;;;;;;3.25;2.05;;;;;;;;;;5047407;28;20468;-49
2022/08/26 08:48:25;;;;;;;9.07;2.28;;;;;;;;;;5042487;28;20119;-47
2022/08/26 08:50:54;;;;;;;3.45;1.90;;;;;;;;;;5038587;28;20035;-50
2022/08/26 08:53:43;;;;;;;2.25;1.88;;;;;;;;;;5045334;28;20036;-47
2022/08/26 08:56:31;;;;;;;6.32;2.17;;;;;;;;;;5002860;28;1180930;-47
2022/08/26 08:59:23;;;;;;;2.55;1.75;;;;;;;;;;5041837;28;20119;-49
2022/08/26 09:02:20;;;;;;;5.90;1.88;;;;;;;;;;5045409;28;20063;-52
2022/08/26 09:04:55;;;;;;;1.75;1.58;;;;;;;;;;5046223;28;20037;-50
2022/08/26 09:07:37;;;;;;;3.63;2.15;;;;;;;;;;5042931;28;20436;-47
2022/08/26 09:10:15;;;;;;;3.83;1.70;;;;;;;;;;5045065;28;20036;-49
2022/08/26 09:12:41;;;;;;;3.65;1.90;;;;;;;;;;5048840;28;20116;-47
2022/08/26 09:15:18;;;;;;;4.72;2.15;;;;;;;;;;5047026;28;20033;-49
2022/08/26 09:18:02;;;;;;;4.50;1.73;;;;;;;;;;5044312;28;20048;-49
2022/08/26 09:20:27;;;;;;;1.70;1.60;;;;;;;;;;5032725;28;20029;-51
2022/08/26 09:22:55;;;;;;;4.47;1.73;;;;;;;;;;5044278;28;20516;-48
2022/08/26 09:25:21;;;;;;;5.32;2.75;;;;;;;;;;5044139;28;20441;-47
2022/08/26 09:27:49;;;;;;;7.68;1.88;;;;;;;;;;5045550;28;20171;-48
2022/08/26 09:30:25;;;;;;;3.95;1.80;;;;;;;;;;5043450;28;20033;-48
2022/08/26 09:33:06;;;;;;;4.88;1.70;;;;;;;;;;5044074;28;20099;-47
2022/08/26 09:35:34;;;;;;;4.75;1.80;;;;;;;;;;5042896;28;20026;-46
2022/08/26 09:38:00;;;;;;;3.90;1.98;;;;;;;;;;5045279;28;20091;-47
2022/08/26 09:40:34;;;;;;;4.22;1.70;;;;;;;;;;5044243;28;20382;-51
2022/08/26 09:43:14;;;;;;;2.67;2.10;;;;;;;;;;5045848;28;20036;-47
2022/08/26 09:45:44;;;;;;;7.88;2.00;;;;;;;;;;5041195;28;20037;-48
2022/08/26 09:48:10;;;;;;;2.22;2.10;;;;;;;;;;5050416;28;20036;-48
2022/08/26 09:51:04;;;;;;;1.95;1.83;;;;;;;;;;5045137;28;20025;-47
2022/08/26 09:53:35;;;;;;;7.72;2.05;;;;;;;;;;5037223;28;20038;-48
2022/08/26 09:56:27;;;;;;;1.90;1.70;;;;;;;;;;5042926;28;20082;-47
2022/08/26 09:58:54;;;;;;;7.32;1.98;;;;;;;;;;5040561;28;20317;-48
2022/08/26 10:01:27;;;;;;;4.25;1.83;;;;;;;;;;5059579;28;20074;-48
2022/08/26 10:04:13;;;;;;;5.22;1.90;;;;;;;;;;5047561;28;20063;-47
2022/08/26 10:07:00;;;;;;;4.35;1.90;;;;;;;;;;5046163;28;20566;-50
2022/08/26 10:09:29;;;;;;;3.40;2.17;;;;;;;;;;5034216;28;20500;-50
2022/08/26 10:11:59;;;;;;;3.13;1.90;;;;;;;;;;5039649;28;20394;-49
2022/08/26 10:14:27;;;;;;;2.85;2.00;;;;;;;;;;5036593;28;20037;-50
2022/08/26 10:17:01;;;;;;;3.78;2.22;;;;;;;;;;5043867;28;20072;-49
2022/08/26 10:19:40;;;;;;;3.78;1.83;;;;;;;;;;5043367;28;20032;-47
2022/08/26 10:22:37;;;;;;;4.68;1.80;;;;;;;;;;5041715;28;20738;-49
2022/08/26 10:25:07;;;;;;;6.38;1.90;;;;;;;;;;5045358;28;20040;-52
2022/08/26 10:27:38;;;;;;;6.30;1.90;;;;;;;;;;5045008;28;20074;-51
2022/08/26 10:30:11;;;;;;;1.70;1.58;;;;;;;;;;5040612;28;20512;-52
2022/08/26 10:32:44;;;;;;;10.88;2.40;;;;;;;;;;5034000;28;20040;-50
2022/08/26 10:35:12;;;;;;;6.40;2.08;;;;;;;;;;5036379;28;20029;-50
2022/08/26 10:37:59;;;;;;;6.22;2.00;;;;;;;;;;5039973;28;20363;-48
2022/08/26 10:40:53;;;;;;;8.07;1.90;;;;;;;;;;5041201;28;20052;-51
2022/08/26 10:43:29;;;;;;;5.88;1.80;;;;;;;;;;5031718;28;20025;-52
2022/08/26 10:46:02;;;;;;;6.75;1.80;;;;;;;;;;5034471;28;20132;-48
2022/08/26 10:48:40;;;;;;;4.07;2.13;;;;;;;;;;5049685;28;20024;-48
2022/08/26 10:51:09;;;;;;;1.92;1.60;;;;;;;;;;5034495;28;20031;-50
2022/08/26 10:54:03;;;;;;;5.15;2.05;;;;;;;;;;5032361;28;20037;-51
2022/08/26 10:56:51;;;;;;;6.38;1.92;;;;;;;;;;5037692;28;20045;-51
2022/08/26 10:59:23;;;;;;;3.08;1.80;;;;;;;;;;5038980;28;20036;-52
2022/08/26 11:01:59;;;;;;;1.98;1.60;;;;;;;;;;5040515;28;20025;-48
2022/08/26 11:04:56;;;;;;;4.50;1.50;;;;;;;;;;5045734;28;20044;-48
2022/08/26 11:07:41;;;;;;;4.43;1.80;;;;;;;;;;4979856;28;20046;-53
2022/08/26 11:10:42;;;;;;;6.35;1.80;;;;;;;;;;4983378;28;20058;-49
2022/08/26 11:13:08;;;;;;;1.90;1.60;;;;;;;;;;4925595;29;20052;-49
2022/08/26 11:15:37;;;;;;;1.60;1.50;;;;;;;;;;4928406;29;20057;-49
2022/08/26 11:18:08;;;;;;;5.85;1.85;;;;;;;;;;4926913;29;21950;-49
2022/08/26 11:20:45;;;;;;;2.42;1.70;;;;;;;;;;4926740;29;20120;-51
2022/08/26 11:23:11;;;;;;;5.30;1.67;;;;;;;;;;4928209;29;20039;-48
2022/08/26 11:25:55;;;;;;;5.93;2.00;;;;;;;;;;4928244;29;20040;-52
2022/08/26 11:28:44;;;;;;;7.90;1.92;;;;;;;;;;4926691;29;20039;-48
2022/08/26 11:31:24;;;;;;;8.38;2.05;;;;;;;;;;4927838;29;20046;-49
2022/08/26 11:34:02;;;;;;;2.97;1.83;;;;;;;;;;4927794;29;20103;-50
2022/08/26 11:36:39;;;;;;;1.90;1.75;;;;;;;;;;4926611;29;20430;-52
2022/08/26 11:39:27;;;;;;;7.90;2.15;;;;;;;;;;4927956;29;20039;-51
2022/08/26 11:41:58;;;;;;;6.43;1.88;;;;;;;;;;4929453;29;20095;-49
2022/08/26 11:44:36;;;;;;;5.37;1.87;;;;;;;;;;4947918;28;20520;-49
2022/08/26 11:47:02;;;;;;;5.55;1.92;;;;;;;;;;4963613;28;20508;-48
2022/08/26 11:49:30;;;;;;;3.90;1.90;;;;;;;;;;4991195;28;20065;-48
2022/08/26 11:52:17;;;;;;;4.25;2.00;;;;;;;;;;5047610;28;20090;-51
2022/08/26 11:55:03;;;;;;;2.55;1.88;;;;;;;;;;5045379;28;20098;-50
2022/08/26 11:57:33;;;;;;;4.28;1.90;;;;;;;;;;5046201;28;20073;-51
2022/08/26 12:00:00;;;;;;;7.85;2.33;;;;;;;;;;5049803;28;20078;-49
2022/08/26 12:02:26;;;;;;;7.47;2.00;;;;;;;;;;5049025;28;20033;-50
2022/08/26 12:04:53;;;;;;;9.07;2.17;;;;;;;;;;5051228;28;20029;-47
2022/08/26 12:07:28;;;;;;;4.47;2.05;;;;;;;;;;5046112;28;20466;-49
2022/08/26 12:09:57;;;;;;;6.85;1.90;;;;;;;;;;5048969;28;20489;-49
2022/08/26 12:12:27;;;;;;;4.65;1.70;;;;;;;;;;5043946;28;20332;-50
2022/08/26 12:15:15;;;;;;;2.97;2.00;;;;;;;;;;5049041;28;20465;-45
2022/08/26 12:17:42;;;;;;;3.58;1.83;;;;;;;;;;5048181;28;20029;-50
2022/08/26 12:20:29;;;;;;;11.80;1.90;;;;;;;;;;5047035;28;20017;-51
2022/08/26 12:22:57;;;;;;;7.10;2.08;;;;;;;;;;5047134;28;20061;-48
2022/08/26 12:25:24;;;;;;;5.07;1.90;;;;;;;;;;5044095;28;20312;-49
2022/08/26 12:27:50;;;;;;;5.65;2.05;;;;;;;;;;5045763;28;20032;-52
2022/08/26 12:30:20;;;;;;;9.13;2.05;;;;;;;;;;5027561;28;20481;-48
2022/08/26 12:32:49;;;;;;;3.63;1.67;;;;;;;;;;5046632;28;20029;-47
2022/08/26 12:35:18;;;;;;;3.22;1.80;;;;;;;;;;5044165;28;20088;-51
2022/08/26 12:37:47;;;;;;;2.22;2.03;;;;;;;;;;5047212;28;20028;-52
2022/08/26 12:40:33;;;;;;;8.70;2.40;;;;;;;;;;5043834;28;20464;-49
2022/08/26 12:43:01;;;;;;;10.95;2.10;;;;;;;;;;5046982;28;20119;-51
2022/08/26 12:45:27;;;;;;;5.95;2.05;;;;;;;;;;5048405;28;20068;-49
2022/08/26 12:47:56;;;;;;;6.85;1.95;;;;;;;;;;5047981;28;20061;-50
2022/08/26 12:50:29;;;;;;;6.28;1.90;;;;;;;;;;5047146;28;20032;-53
2022/08/26 12:53:07;;;;;;;5.78;2.35;;;;;;;;;;5043178;28;20033;-52
2022/08/26 12:55:37;;;;;;;4.40;1.80;;;;;;;;;;5046179;28;20041;-53
2022/08/26 12:58:14;;;;;;;4.70;1.70;;;;;;;;;;5047795;28;20750;-48
2022/08/26 13:00:40;;;;;;;2.05;1.80;;;;;;;;;;5045542;28;20036;-48
2022/08/26 13:03:34;;;;;;;5.75;1.75;;;;;;;;;;5043118;28;20024;-48
2022/08/26 13:06:21;;;;;;;1.98;1.77;;;;;;;;;;5045783;28;20092;-52
2022/08/26 13:08:57;;;;;;;4.05;1.80;;;;;;;;;;5042533;28;20124;-47
2022/08/26 13:11:31;;;;;;;2.70;1.70;;;;;;;;;;5047908;28;20659;-48
2022/08/26 13:14:06;;;;;;;4.80;1.80;;;;;;;;;;5046453;28;20132;-51
2022/08/26 13:16:32;;;;;;;5.97;1.80;;;;;;;;;;5043422;28;20026;-51
2022/08/26 13:19:02;;;;;;;3.17;2.20;;;;;;;;;;5048474;28;20025;-48
2022/08/26 13:21:34;;;;;;;8.77;2.40;;;;;;;;;;5043107;28;20037;-47
2022/08/26 13:24:06;;;;;;;4.53;1.92;;;;;;;;;;5045319;28;20032;-49
2022/08/26 13:26:32;;;;;;;3.90;2.08;;;;;;;;;;5048819;28;20537;-48
2022/08/26 13:28:58;;;;;;;7.03;1.92;;;;;;;;;;5043040;28;20094;-49
2022/08/26 13:31:28;;;;;;;4.43;2.15;;;;;;;;;;5043782;28;20087;-48
2022/08/26 13:33:54;;;;;;;8.05;1.80;;;;;;;;;;5043336;28;20599;-49
2022/08/26 13:36:20;;;;;;;3.38;2.00;;;;;;;;;;5040610;28;20108;-50
2022/08/26 13:38:46;;;;;;;6.55;2.05;;;;;;;;;;5046517;28;20112;-49
2022/08/26 13:41:11;;;;;;;4.63;1.88;;;;;;;;;;5047768;28;20359;-48
2022/08/26 13:43:37;;;;;;;6.68;1.92;;;;;;;;;;5043689;28;20033;-49
2022/08/26 13:46:03;;;;;;;2.70;1.67;;;;;;;;;;5046762;28;20477;-48
2022/08/26 13:48:30;;;;;;;3.55;1.98;;;;;;;;;;5043556;28;20029;-50
2022/08/26 13:50:56;;;;;;;5.15;1.95;;;;;;;;;;5039765;28;20021;-49
2022/08/26 13:53:22;;;;;;;3.22;1.85;;;;;;;;;;5047461;28;20032;-53
2022/08/26 13:55:48;;;;;;;1.77;1.67;;;;;;;;;;5045971;28;20045;-50
2022/08/26 13:58:14;;;;;;;2.45;1.80;;;;;;;;;;5047775;28;20028;-48
2022/08/26 14:00:40;;;;;;;4.72;1.90;;;;;;;;;;5046073;28;20094;-47
2022/08/26 14:03:07;;;;;;;6.63;1.85;;;;;;;;;;5045304;28;20033;-50
2022/08/26 14:05:33;;;;;;;4.68;1.90;;;;;;;;;;5043631;28;20044;-52
2022/08/26 14:07:59;;;;;;;2.92;2.05;;;;;;;;;;5043213;28;20440;-48
2022/08/26 14:10:26;;;;;;;3.60;1.70;;;;;;;;;;5046228;28;20432;-47
2022/08/26 14:12:52;;;;;;;4.63;1.98;;;;;;;;;;5046738;28;20044;-49
2022/08/26 14:15:18;;;;;;;5.47;1.73;;;;;;;;;;5046346;28;20036;-50
2022/08/26 14:17:48;;;;;;;8.32;1.95;;;;;;;;;;5044554;28;20035;-48
2022/08/26 14:20:19;;;;;;;3.33;1.90;;;;;;;;;;5042360;28;20045;-50
2022/08/26 14:22:44;;;;;;;;;;;;;;;;;;5043273;28;20048;-48
2022/08/26 14:25:12;;;;;;;1.88;1.58;;;;;;;;;;5047739;28;20749;-50
2022/08/26 14:27:39;;;;;;;1.92;1.80;;;;;;;;;;5045110;28;20021;-49
2022/08/26 14:30:06;;;;;;;1.85;1.60;;;;;;;;;;5041757;28;20029;-50
2022/08/26 14:32:33;;;;;;;3.33;2.08;;;;;;;;;;5039633;28;20140;-50
2022/08/26 14:34:59;;;;;;;2.67;1.83;;;;;;;;;;5039923;28;20075;-50
2022/08/26 14:37:25;;;;;;;4.72;1.77;;;;;;;;;;5041410;28;20037;-49
2022/08/26 14:39:51;;;;;;;2.78;1.80;;;;;;;;;;5042986;28;20039;-51
2022/08/26 14:42:24;;;;;;;5.75;1.70;;;;;;;;;;5043954;28;20029;-50
2022/08/26 14:44:57;;;;;;;3.40;2.00;;;;;;;;;;5047139;28;20021;-49
2022/08/26 14:47:23;;;;;;;3.15;1.67;;;;;;;;;;5042915;28;20381;-51
2022/08/26 14:49:49;;;;;;;4.47;1.80;;;;;;;;;;5046568;28;20021;-48
2022/08/26 14:52:16;;;;;;;8.00;2.10;;;;;;;;;;5043943;28;20029;-48
2022/08/26 14:54:41;;;;;;;10.80;1.77;;;;;;;;;;5042355;28;20076;-49
2022/08/26 14:57:09;;;;;;;9.00;2.13;;;;;;;;;;5041769;28;20048;-54
2022/08/26 14:59:41;;;;;;;3.08;2.17;;;;;;;;;;5046360;28;20037;-51
2022/08/26 15:02:09;;;;;;;6.70;2.13;;;;;;;;;;5047068;28;20036;-47